PWSweather.com
Personal Weather Stations
Station Observations
FAUSKE
Nordland, Norway, FauskeNO 8200

Nordland, NorwayFauskeNO 8200

Lat: 67.2607586, Lon: 15.4114204

Elevation: 40

Station Type: Davis Vantage PRO2

http://www.bjornli.net/weather.html

High Low Average
Temperature 47.5°F8.6°C 36.6°F2.6°C 43.0°F6.1°C
Dew Point 45.8°F7.7°C 35.3°F1.8°C 41.7°F5.4°C
Winds 5.0 mph 8.0 kmh Calm Calm Calm ECalm E
Wind Gusts 13.0 mph20.9 kmh -- 1.0 mph1.6 kmh
Humidity 97% 91% 95%
Pressure 29.47 in998.0 mb 29.13 in986.5 mb -
Precipitation 0.00 in0.0 mm - -
Hour Temp Dew Point Humidity Winds Wind Gusts Pressure Precip Precip Rate Daily Precip Total
12:00 AM 47.5°F8.6°C 45.0°F7.2°C 91% Calm Calm -- 29.47 in998.0 mb 0.02 in0.5 mm 0.00 in0.0 mm 0.02 in0.5 mm
12:10 AM 47.3°F8.5°C 45.1°F7.3°C 92% Calm Calm -- 29.47 in998.0 mb 0.02 in0.5 mm 0.00 in0.0 mm 0.02 in0.5 mm
12:30 AM 47.2°F8.4°C 45.3°F7.4°C 93% Calm Calm -- 29.46 in997.6 mb 0.02 in0.5 mm 0.00 in0.0 mm 0.02 in0.5 mm
12:40 AM 47.1°F8.4°C 45.2°F7.3°C 93% Calm Calm -- 29.46 in997.6 mb 0.03 in0.8 mm 0.06 in1.5 mm 0.03 in0.8 mm
01:00 AM 46.9°F8.3°C 45.0°F7.2°C 93% Calm Calm -- 29.46 in997.6 mb 0.02 in0.5 mm 0.00 in0.0 mm 0.03 in0.8 mm
01:10 AM 46.8°F8.2°C 44.9°F7.2°C 93% Calm Calm -- 29.45 in997.3 mb 0.03 in0.8 mm 0.06 in1.5 mm 0.04 in1.0 mm
01:30 AM 46.7°F8.2°C 45.1°F7.3°C 94% Calm Calm -- 29.44 in997.0 mb 0.03 in0.8 mm 0.00 in0.0 mm 0.04 in1.0 mm
01:40 AM 46.6°F8.1°C 45.0°F7.2°C 94% Calm Calm -- 29.44 in997.0 mb 0.04 in1.0 mm 0.06 in1.5 mm 0.05 in1.3 mm
02:00 AM 46.4°F8.0°C 44.8°F7.1°C 94% Calm Calm -- 29.43 in996.6 mb 0.02 in0.5 mm 0.00 in0.0 mm 0.05 in1.3 mm
02:10 AM 46.4°F8.0°C 44.8°F7.1°C 94% Calm Calm -- 29.43 in996.6 mb 0.02 in0.5 mm 0.00 in0.0 mm 0.05 in1.3 mm
02:30 AM 46.3°F7.9°C 45.0°F7.2°C 95% Calm Calm -- 29.42 in996.3 mb 0.02 in0.5 mm 0.00 in0.0 mm 0.05 in1.3 mm
02:40 AM 46.2°F7.9°C 44.9°F7.2°C 95% Calm Calm -- 29.42 in996.3 mb 0.02 in0.5 mm 0.00 in0.0 mm 0.05 in1.3 mm
03:00 AM 46.2°F7.9°C 44.9°F7.2°C 95% Calm Calm -- 29.41 in995.9 mb 0.02 in0.5 mm 0.00 in0.0 mm 0.05 in1.3 mm
03:10 AM 46.2°F7.9°C 44.9°F7.2°C 95% Calm Calm -- 29.40 in995.6 mb 0.02 in0.5 mm 0.00 in0.0 mm 0.05 in1.3 mm
03:30 AM 46.3°F7.9°C 45.0°F7.2°C 95% Calm Calm -- 29.39 in995.3 mb 0.02 in0.5 mm 0.00 in0.0 mm 0.05 in1.3 mm
03:40 AM 46.2°F7.9°C 44.9°F7.2°C 95% Calm Calm -- 29.39 in995.3 mb 0.02 in0.5 mm 0.00 in0.0 mm 0.05 in1.3 mm
04:00 AM 46.2°F7.9°C 44.9°F7.2°C 95% Calm Calm -- 29.38 in994.9 mb 0.02 in0.5 mm 0.00 in0.0 mm 0.05 in1.3 mm
04:10 AM 46.2°F7.9°C 44.9°F7.2°C 95% Calm Calm -- 29.38 in994.9 mb 0.03 in0.8 mm 0.06 in1.5 mm 0.06 in1.5 mm
04:30 AM 46.1°F7.8°C 44.8°F7.1°C 95% Calm Calm -- 29.37 in994.6 mb 0.04 in1.0 mm 0.03 in0.8 mm 0.07 in1.8 mm
04:40 AM 46.0°F7.8°C 44.9°F7.2°C 96% Calm Calm -- 29.36 in994.2 mb 0.04 in1.0 mm 0.00 in0.0 mm 0.07 in1.8 mm
05:00 AM 46.0°F7.8°C 44.9°F7.2°C 96% Calm Calm -- 29.35 in993.9 mb 0.02 in0.5 mm 0.00 in0.0 mm 0.07 in1.8 mm
05:10 AM 46.0°F7.8°C 44.9°F7.2°C 96% Calm Calm -- 29.34 in993.6 mb 0.03 in0.8 mm 0.06 in1.5 mm 0.08 in2.0 mm
05:30 AM 46.1°F7.8°C 45.0°F7.2°C 96% Calm Calm -- 29.33 in993.2 mb 0.02 in0.5 mm 0.00 in0.0 mm 0.08 in2.0 mm
05:40 AM 46.0°F7.8°C 44.9°F7.2°C 96% Calm Calm -- 29.33 in993.2 mb 0.02 in0.5 mm 0.00 in0.0 mm 0.08 in2.0 mm
06:00 AM 46.0°F7.8°C 44.9°F7.2°C 96% Calm Calm -- 29.32 in992.9 mb 0.03 in0.8 mm 0.02 in0.5 mm 0.09 in2.3 mm
06:10 AM 46.0°F7.8°C 44.9°F7.2°C 96% Calm Calm -- 29.32 in992.9 mb 0.03 in0.8 mm 0.00 in0.0 mm 0.09 in2.3 mm
06:30 AM 46.1°F7.8°C 45.0°F7.2°C 96% Calm Calm -- 29.31 in992.6 mb 0.03 in0.8 mm 0.00 in0.0 mm 0.09 in2.3 mm
06:40 AM 46.0°F7.8°C 44.9°F7.2°C 96% Calm Calm -- 29.31 in992.6 mb 0.03 in0.8 mm 0.00 in0.0 mm 0.09 in2.3 mm
07:00 AM 46.0°F7.8°C 44.9°F7.2°C 96% Calm Calm -- 29.31 in992.6 mb 0.03 in0.8 mm 0.00 in0.0 mm 0.09 in2.3 mm
07:10 AM 46.0°F7.8°C 44.9°F7.2°C 96% Calm Calm -- 29.30 in992.2 mb 0.04 in1.0 mm 0.06 in1.5 mm 0.10 in2.5 mm
07:30 AM 46.1°F7.8°C 45.0°F7.2°C 96% Calm Calm -- 29.29 in991.9 mb 0.02 in0.5 mm 0.00 in0.0 mm 0.10 in2.5 mm
07:40 AM 46.2°F7.9°C 45.1°F7.3°C 96% Calm Calm -- 29.29 in991.9 mb 0.02 in0.5 mm 0.00 in0.0 mm 0.10 in2.5 mm
08:00 AM 46.3°F7.9°C 45.2°F7.3°C 96% Calm Calm -- 29.29 in991.9 mb 0.02 in0.5 mm 0.00 in0.0 mm 0.10 in2.5 mm
08:10 AM 46.3°F7.9°C 45.2°F7.3°C 96% Calm Calm -- 29.28 in991.5 mb 0.02 in0.5 mm 0.00 in0.0 mm 0.10 in2.5 mm
08:30 AM 46.4°F8.0°C 45.3°F7.4°C 96% Calm Calm -- 29.27 in991.2 mb 0.02 in0.5 mm 0.00 in0.0 mm 0.10 in2.5 mm
08:40 AM 46.4°F8.0°C 45.3°F7.4°C 96% Calm Calm -- 29.27 in991.2 mb 0.02 in0.5 mm 0.00 in0.0 mm 0.10 in2.5 mm
09:00 AM 46.3°F7.9°C 45.5°F7.5°C 97% Calm Calm -- 29.27 in991.2 mb 0.00 in0.0 mm 0.00 in0.0 mm 0.10 in2.5 mm
09:10 AM 46.4°F8.0°C 45.6°F7.6°C 97% Calm Calm -- 29.26 in990.9 mb 0.00 in0.0 mm 0.00 in0.0 mm 0.10 in2.5 mm
09:30 AM 46.5°F8.1°C 45.7°F7.6°C 97% Calm Calm -- 29.26 in990.9 mb 0.00 in0.0 mm 0.00 in0.0 mm 0.10 in2.5 mm
09:40 AM 46.6°F8.1°C 45.8°F7.7°C 97% Calm Calm 5.0 mph8.0 kmh 29.26 in990.9 mb 0.00 in0.0 mm 0.00 in0.0 mm 0.10 in2.5 mm
10:00 AM 46.1°F7.8°C 45.0°F7.2°C 96% Calm Calm -- 29.25 in990.5 mb 0.00 in0.0 mm 0.00 in0.0 mm 0.10 in2.5 mm
10:10 AM 45.9°F7.7°C 45.1°F7.3°C 97% Calm Calm 9.0 mph14.5 kmh 29.25 in990.5 mb 0.00 in0.0 mm 0.00 in0.0 mm 0.10 in2.5 mm
10:30 AM 44.8°F7.1°C 43.7°F6.5°C 96% 5.0 mph NE8.0 kmh NE 6.0 mph9.7 kmh 29.25 in990.5 mb 0.02 in0.5 mm 0.06 in1.5 mm 0.12 in3.0 mm
10:40 AM 44.1°F6.7°C 43.0°F6.1°C 96% 4.0 mph NE6.4 kmh NE 10.0 mph16.1 kmh 29.25 in990.5 mb 0.02 in0.5 mm 0.00 in0.0 mm 0.12 in3.0 mm
11:00 AM 43.5°F6.4°C 42.4°F5.8°C 96% 5.0 mph N8.0 kmh N 12.0 mph19.3 kmh 29.25 in990.5 mb 0.02 in0.5 mm 0.00 in0.0 mm 0.12 in3.0 mm
11:10 AM 43.3°F6.3°C 42.2°F5.7°C 96% Calm Calm 13.0 mph20.9 kmh 29.25 in990.5 mb 0.02 in0.5 mm 0.00 in0.0 mm 0.12 in3.0 mm
11:30 AM 43.1°F6.2°C 42.0°F5.6°C 96% 2.0 mph NE3.2 kmh NE 7.0 mph11.3 kmh 29.25 in990.5 mb 0.02 in0.5 mm 0.00 in0.0 mm 0.12 in3.0 mm
11:40 AM 43.0°F6.1°C 41.9°F5.5°C 96% 4.0 mph ENE6.4 kmh ENE 12.0 mph19.3 kmh 29.25 in990.5 mb 0.03 in0.8 mm 0.06 in1.5 mm 0.13 in3.3 mm
12:00 PM 42.7°F5.9°C 41.4°F5.2°C 95% 4.0 mph NE6.4 kmh NE 8.0 mph12.9 kmh 29.24 in990.2 mb 0.03 in0.8 mm 0.00 in0.0 mm 0.13 in3.3 mm
12:10 PM 42.8°F6.0°C 41.5°F5.3°C 95% 1.0 mph NE1.6 kmh NE 11.0 mph17.7 kmh 29.24 in990.2 mb 0.03 in0.8 mm 0.00 in0.0 mm 0.13 in3.3 mm
12:30 PM 42.7°F5.9°C 41.4°F5.2°C 95% 1.0 mph NE1.6 kmh NE 4.0 mph6.4 kmh 29.23 in989.8 mb 0.02 in0.5 mm 0.00 in0.0 mm 0.13 in3.3 mm
12:40 PM 42.8°F6.0°C 41.5°F5.3°C 95% 1.0 mph NE1.6 kmh NE 10.0 mph16.1 kmh 29.24 in990.2 mb 0.02 in0.5 mm 0.00 in0.0 mm 0.13 in3.3 mm
01:00 PM 42.6°F5.9°C 41.0°F5.0°C 94% Calm Calm 2.0 mph3.2 kmh 29.24 in990.2 mb 0.00 in0.0 mm 0.00 in0.0 mm 0.13 in3.3 mm
01:10 PM 42.4°F5.8°C 40.8°F4.9°C 94% Calm Calm 6.0 mph9.7 kmh 29.24 in990.2 mb 0.00 in0.0 mm 0.00 in0.0 mm 0.13 in3.3 mm
01:30 PM 42.4°F5.8°C 40.8°F4.9°C 94% Calm Calm -- 29.24 in990.2 mb 0.00 in0.0 mm 0.00 in0.0 mm 0.13 in3.3 mm
01:40 PM 42.3°F5.7°C 40.7°F4.8°C 94% Calm Calm 4.0 mph6.4 kmh 29.23 in989.8 mb 0.00 in0.0 mm 0.00 in0.0 mm 0.13 in3.3 mm
02:00 PM 42.7°F5.9°C 41.1°F5.1°C 94% Calm Calm -- 29.23 in989.8 mb 0.00 in0.0 mm 0.00 in0.0 mm 0.13 in3.3 mm
02:10 PM 42.6°F5.9°C 41.0°F5.0°C 94% Calm Calm -- 29.23 in989.8 mb 0.00 in0.0 mm 0.00 in0.0 mm 0.13 in3.3 mm
02:30 PM 42.3°F5.7°C 40.7°F4.8°C 94% Calm Calm -- 29.23 in989.8 mb 0.00 in0.0 mm 0.00 in0.0 mm 0.13 in3.3 mm
02:40 PM 42.4°F5.8°C 40.8°F4.9°C 94% Calm Calm -- 29.22 in989.5 mb 0.00 in0.0 mm 0.00 in0.0 mm 0.13 in3.3 mm
03:00 PM 42.4°F5.8°C 40.8°F4.9°C 94% Calm Calm -- 29.22 in989.5 mb 0.00 in0.0 mm 0.00 in0.0 mm 0.13 in3.3 mm
03:10 PM 42.7°F5.9°C 41.1°F5.1°C 94% Calm Calm -- 29.22 in989.5 mb 0.00 in0.0 mm 0.00 in0.0 mm 0.13 in3.3 mm
03:30 PM 42.5°F5.8°C 40.9°F4.9°C 94% Calm Calm -- 29.21 in989.2 mb 0.00 in0.0 mm 0.00 in0.0 mm 0.13 in3.3 mm
03:40 PM 42.6°F5.9°C 41.3°F5.2°C 95% Calm Calm -- 29.21 in989.2 mb 0.00 in0.0 mm 0.00 in0.0 mm 0.13 in3.3 mm
04:00 PM 42.6°F5.9°C 41.3°F5.2°C 95% Calm Calm -- 29.20 in988.8 mb 0.00 in0.0 mm 0.00 in0.0 mm 0.13 in3.3 mm
04:10 PM 42.4°F5.8°C 41.1°F5.1°C 95% Calm Calm -- 29.20 in988.8 mb 0.00 in0.0 mm 0.00 in0.0 mm 0.13 in3.3 mm
04:30 PM 42.2°F5.7°C 40.6°F4.8°C 94% Calm Calm -- 29.19 in988.5 mb 0.00 in0.0 mm 0.00 in0.0 mm 0.13 in3.3 mm
04:40 PM 42.0°F5.6°C 40.7°F4.8°C 95% Calm Calm -- 29.19 in988.5 mb 0.00 in0.0 mm 0.00 in0.0 mm 0.13 in3.3 mm
05:00 PM 41.7°F5.4°C 40.1°F4.5°C 94% Calm Calm -- 29.18 in988.1 mb 0.00 in0.0 mm 0.00 in0.0 mm 0.13 in3.3 mm
05:10 PM 41.5°F5.3°C 40.2°F4.6°C 95% Calm Calm -- 29.18 in988.1 mb 0.00 in0.0 mm 0.00 in0.0 mm 0.13 in3.3 mm
05:30 PM 41.4°F5.2°C 40.1°F4.5°C 95% Calm Calm -- 29.18 in988.1 mb 0.00 in0.0 mm 0.00 in0.0 mm 0.13 in3.3 mm
05:40 PM 41.3°F5.2°C 40.0°F4.4°C 95% Calm Calm -- 29.18 in988.1 mb 0.00 in0.0 mm 0.00 in0.0 mm 0.13 in3.3 mm
06:00 PM 41.0°F5.0°C 39.7°F4.3°C 95% Calm Calm -- 29.17 in987.8 mb 0.00 in0.0 mm 0.00 in0.0 mm 0.13 in3.3 mm
06:10 PM 40.7°F4.8°C 39.4°F4.1°C 95% Calm Calm -- 29.17 in987.8 mb 0.00 in0.0 mm 0.00 in0.0 mm 0.13 in3.3 mm
06:30 PM 39.7°F4.3°C 38.4°F3.6°C 95% Calm Calm -- 29.16 in987.5 mb 0.00 in0.0 mm 0.00 in0.0 mm 0.13 in3.3 mm
06:40 PM 39.3°F4.1°C 38.0°F3.3°C 95% Calm Calm -- 29.16 in987.5 mb 0.00 in0.0 mm 0.00 in0.0 mm 0.13 in3.3 mm
07:00 PM 38.7°F3.7°C 37.4°F3.0°C 95% Calm Calm -- 29.16 in987.5 mb 0.00 in0.0 mm 0.00 in0.0 mm 0.13 in3.3 mm
07:10 PM 38.6°F3.7°C 37.3°F2.9°C 95% Calm Calm -- 29.16 in987.5 mb 0.00 in0.0 mm 0.00 in0.0 mm 0.13 in3.3 mm
07:30 PM 38.5°F3.6°C 37.2°F2.9°C 95% Calm Calm -- 29.15 in987.1 mb 0.00 in0.0 mm 0.00 in0.0 mm 0.13 in3.3 mm
07:40 PM 38.5°F3.6°C 37.2°F2.9°C 95% Calm Calm -- 29.15 in987.1 mb 0.00 in0.0 mm 0.00 in0.0 mm 0.13 in3.3 mm
07:50 PM 38.4°F3.6°C 37.1°F2.8°C 95% Calm Calm -- 29.15 in987.1 mb 0.00 in0.0 mm 0.00 in0.0 mm 0.13 in3.3 mm
08:00 PM 38.2°F3.4°C 36.9°F2.7°C 95% Calm Calm -- 29.15 in987.1 mb 0.00 in0.0 mm 0.00 in0.0 mm 0.13 in3.3 mm
08:10 PM 38.1°F3.4°C 36.8°F2.7°C 95% Calm Calm -- 29.15 in987.1 mb 0.00 in0.0 mm 0.00 in0.0 mm 0.13 in3.3 mm
08:30 PM 37.7°F3.2°C 36.4°F2.4°C 95% Calm Calm -- 29.14 in986.8 mb 0.00 in0.0 mm 0.00 in0.0 mm 0.13 in3.3 mm
08:40 PM 37.6°F3.1°C 36.3°F2.4°C 95% Calm Calm -- 29.14 in986.8 mb 0.00 in0.0 mm 0.00 in0.0 mm 0.13 in3.3 mm
09:00 PM 37.1°F2.8°C 35.8°F2.1°C 95% Calm Calm -- 29.14 in986.8 mb 0.00 in0.0 mm 0.00 in0.0 mm 0.13 in3.3 mm
09:10 PM 37.0°F2.8°C 35.7°F2.1°C 95% Calm Calm -- 29.14 in986.8 mb 0.00 in0.0 mm 0.00 in0.0 mm 0.13 in3.3 mm
09:30 PM 37.0°F2.8°C 35.7°F2.1°C 95% Calm Calm -- 29.13 in986.5 mb 0.00 in0.0 mm 0.00 in0.0 mm 0.13 in3.3 mm
09:40 PM 36.9°F2.7°C 35.6°F2.0°C 95% Calm Calm -- 29.14 in986.8 mb 0.00 in0.0 mm 0.00 in0.0 mm 0.13 in3.3 mm
10:00 PM 36.8°F2.7°C 35.5°F1.9°C 95% Calm Calm -- 29.14 in986.8 mb 0.00 in0.0 mm 0.00 in0.0 mm 0.13 in3.3 mm
10:10 PM 36.8°F2.7°C 35.5°F1.9°C 95% Calm Calm -- 29.14 in986.8 mb 0.00 in0.0 mm 0.00 in0.0 mm 0.13 in3.3 mm
10:30 PM 36.6°F2.6°C 35.3°F1.8°C 95% Calm Calm -- 29.14 in986.8 mb 0.00 in0.0 mm 0.00 in0.0 mm 0.13 in3.3 mm
10:40 PM 36.6°F2.6°C 35.3°F1.8°C 95% Calm Calm -- 29.14 in986.8 mb 0.00 in0.0 mm 0.00 in0.0 mm 0.13 in3.3 mm
11:00 PM 36.7°F2.6°C 35.4°F1.9°C 95% Calm Calm -- 29.13 in986.5 mb 0.00 in0.0 mm 0.00 in0.0 mm 0.13 in3.3 mm
11:10 PM 36.9°F2.7°C 35.6°F2.0°C 95% Calm Calm 4.0 mph6.4 kmh 29.13 in986.5 mb 0.00 in0.0 mm 0.00 in0.0 mm 0.13 in3.3 mm
11:30 PM 36.9°F2.7°C 35.6°F2.0°C 95% Calm Calm -- 29.13 in986.5 mb 0.00 in0.0 mm 0.00 in0.0 mm 0.13 in3.3 mm
11:40 PM 37.0°F2.8°C 36.0°F2.2°C 96% Calm Calm -- 29.13 in986.5 mb 0.00 in0.0 mm 0.00 in0.0 mm 0.13 in3.3 mm